Time;durP1;ratioP1;P1;durP2;ratioP2;P2;SDS_P1;SDS_P2;PMS_P1;PMS_P2;Temp;Humidity;BMP_temperature;BMP_pressure;BME280_temperature;BME280_humidity;BME280_pressure;Samples;Min_cycle;Max_cycle;Signal;HPM_P1;HPM_P2
2021/12/03 00:00:46;;;;;;;4.66;2.52;;;;;;;8.04;73.16;100235.25;461552;113;923536;-80
2021/12/03 00:01:50;;;;;;;6.14;2.38;;;;;;;8.03;73.21;100225.42;462415;113;923158;-79
2021/12/03 00:02:54;;;;;;;8.58;2.47;;;;;;;8.04;73.23;100230.66;463516;113;922764;-78
2021/12/03 00:03:57;;;;;;;4.88;2.03;;;;;;;8.04;73.25;100230.66;448159;116;923083;-78
2021/12/03 00:05:01;;;;;;;7.38;2.54;;;;;;;8.05;73.21;100228.78;444724;117;922649;-79
2021/12/03 00:06:04;;;;;;;3.85;1.87;;;;;;;8.07;73.27;100222.09;448315;116;922980;-79
2021/12/03 00:07:08;;;;;;;3.68;2.48;;;;;;;8.09;73.25;100230.03;446510;118;922930;-79
2021/12/03 00:08:12;;;;;;;3.25;2.06;;;;;;;8.10;73.23;100226.28;447145;118;922647;-79
2021/12/03 00:09:15;;;;;;;3.55;1.98;;;;;;;8.11;73.25;100214.34;445726;118;930507;-79
2021/12/03 00:10:23;;;;;;;4.88;2.18;;;;;;;8.10;73.24;100224.41;453162;115;922648;-79
2021/12/03 00:11:25;;;;;;;4.81;2.21;;;;;;;8.12;73.26;100216.03;454821;116;923269;-79
2021/12/03 00:12:29;;;;;;;4.02;2.20;;;;;;;8.16;73.20;100222.73;454328;114;922568;-80
2021/12/03 00:13:34;;;;;;;3.41;1.99;;;;;;;8.16;73.20;100222.73;453845;114;930627;-79
2021/12/03 00:14:37;;;;;;;3.04;2.34;;;;;;;8.17;73.25;100217.08;453672;114;923065;-79
2021/12/03 00:15:40;;;;;;;2.89;1.82;;;;;;;8.19;73.18;100219.59;453724;115;923144;-80
2021/12/03 00:16:44;;;;;;;3.75;2.03;;;;;;;8.19;73.17;100223.15;452936;114;922688;-79
2021/12/03 00:17:48;;;;;;;4.11;2.44;;;;;;;8.20;73.16;100219.39;457065;114;922894;-79
2021/12/03 00:18:51;;;;;;;3.11;2.05;;;;;;;8.20;73.12;100222.11;453145;114;931031;-80
2021/12/03 00:19:54;;;;;;;4.67;2.46;;;;;;;8.21;73.15;100222.95;448966;116;922516;-80
2021/12/03 00:21:02;;;;;;;4.31;2.24;;;;;;;8.21;73.10;100221.07;458150;113;923368;-79
2021/12/03 00:22:05;;;;;;;5.16;2.36;;;;;;;8.23;73.07;100218.12;459239;113;923014;-78
2021/12/03 00:23:10;;;;;;;3.32;2.20;;;;;;;8.23;73.08;100228.98;459348;113;923048;-79
2021/12/03 00:24:13;;;;;;;5.91;2.64;;;;;;;8.23;73.03;100221.68;458960;114;930563;-78
2021/12/03 00:25:17;;;;;;;2.89;1.84;;;;;;;8.24;73.03;100222.52;452044;116;922946;-78
2021/12/03 00:26:21;;;;;;;4.68;2.22;;;;;;;8.23;72.99;100218.12;449859;115;922576;-79
2021/12/03 00:27:25;;;;;;;4.71;2.44;;;;;;;8.23;73.01;100218.96;458686;113;923341;-79
2021/12/03 00:28:29;;;;;;;3.67;2.31;;;;;;;8.23;73.03;100220.84;452197;115;922793;-79
2021/12/03 00:29:33;;;;;;;5.21;2.33;;;;;;;8.22;73.00;100214.57;454903;115;922625;-79
2021/12/03 00:30:37;;;;;;;3.37;2.17;;;;;;;8.22;73.06;100220.00;451575;115;930660;-80
2021/12/03 00:31:41;;;;;;;5.21;2.13;;;;;;;8.22;73.03;100216.45;455301;115;930426;-80
2021/12/03 00:32:46;;;;;;;6.52;3.01;;;;;;;8.23;73.03;100215.41;454748;115;923484;-80
2021/12/03 00:33:50;;;;;;;4.58;2.41;;;;;;;8.22;73.02;100225.43;453552;116;923240;-80
2021/12/03 00:34:53;;;;;;;3.44;1.98;;;;;;;8.22;73.04;100217.28;453158;115;922563;-80
2021/12/03 00:35:57;;;;;;;5.00;2.22;;;;;;;8.23;73.06;100220.84;453912;116;922590;-79
2021/12/03 00:37:00;;;;;;;3.84;2.19;;;;;;;8.23;73.08;100224.39;448271;117;922690;-81
2021/12/03 00:38:05;;;;;;;4.38;2.04;;;;;;;8.23;73.06;100223.55;448967;116;923096;-79
2021/12/03 00:39:08;;;;;;;3.56;2.24;;;;;;;8.23;73.09;100228.98;452372;115;930572;-80
2021/12/03 00:40:16;;;;;;;5.76;2.11;;;;;;;8.22;73.15;100220.00;453221;116;923194;-80
2021/12/03 00:41:20;;;;;;;5.34;2.05;;;;;;;8.24;73.10;100228.79;455268;114;922670;-80
2021/12/03 00:42:26;;;;;;;4.58;2.19;;;;;;;8.26;73.10;100228.59;460671;113;922982;-79
2021/12/03 00:43:29;;;;;;;5.27;2.29;;;;;;;8.26;73.09;100223.16;458849;114;922521;-79
2021/12/03 00:44:32;;;;;;;4.01;2.27;;;;;;;8.27;73.04;100227.55;457791;114;922703;-80
2021/12/03 00:45:36;;;;;;;7.88;2.49;;;;;;;8.26;73.06;100224.00;458258;113;931012;-80
2021/12/03 00:46:40;;;;;;;3.79;2.24;;;;;;;8.27;73.12;100227.55;457743;114;923141;-79
2021/12/03 00:47:44;;;;;;;3.87;2.05;;;;;;;8.26;73.12;100221.28;459066;113;922577;-80
2021/12/03 00:48:51;;;;;;;4.78;2.09;;;;;;;8.27;73.15;100225.64;458527;114;930647;-80
2021/12/03 00:49:54;;;;;;;3.76;2.04;;;;;;;8.27;73.13;100222.12;457559;114;923570;-79
2021/12/03 00:50:58;;;;;;;4.25;1.99;;;;;;;8.27;73.17;100222.92;457613;114;922647;-79
2021/12/03 00:52:02;;;;;;;4.18;2.31;;;;;;;8.29;73.13;100228.16;458114;114;923432;-79
2021/12/03 00:53:05;;;;;;;4.09;2.37;;;;;;;8.29;73.14;100229.00;453459;116;923032;-79
2021/12/03 00:54:09;;;;;;;4.83;2.16;;;;;;;8.30;73.12;100227.16;454596;115;930588;-79
2021/12/03 00:55:12;;;;;;;5.17;2.70;;;;;;;8.30;73.12;100227.99;454379;115;930616;-79
2021/12/03 00:56:17;;;;;;;2.90;1.84;;;;;;;8.31;73.11;100228.83;452566;114;923452;-79
2021/12/03 00:57:20;;;;;;;5.19;2.68;;;;;;;8.31;73.10;100226.95;453237;116;922601;-79
2021/12/03 00:58:24;;;;;;;4.53;2.34;;;;;;;8.31;73.13;100220.68;448964;116;922441;-78
2021/12/03 00:59:28;;;;;;;3.29;1.95;;;;;;;8.32;73.19;100225.08;458358;114;922974;-79
2021/12/03 01:00:32;;;;;;;4.31;2.33;;;;;;;8.31;73.22;100226.95;458510;113;923039;-78
2021/12/03 01:01:38;;;;;;;4.39;2.19;;;;;;;8.33;73.25;100221.28;460122;114;930587;-79
2021/12/03 01:02:42;;;;;;;4.04;2.68;;;;;;;8.33;73.21;100222.12;451607;115;922887;-79
2021/12/03 01:03:46;;;;;;;3.39;2.48;;;;;;;8.34;73.17;100223.80;458718;111;923169;-79
2021/12/03 01:04:49;;;;;;;3.66;2.50;;;;;;;8.34;73.18;100223.80;467807;111;923066;-78
2021/12/03 01:05:54;;;;;;;4.47;2.56;;;;;;;8.34;73.19;100223.80;468830;111;922944;-81
2021/12/03 01:06:57;;;;;;;4.23;2.47;;;;;;;8.36;73.16;100223.60;467013;111;922710;-79
2021/12/03 01:08:01;;;;;;;6.08;2.83;;;;;;;8.35;73.18;100222.77;467484;111;922704;-79
2021/12/03 01:09:04;;;;;;;3.74;2.52;;;;;;;8.37;73.23;100222.56;467943;111;930584;-79
2021/12/03 01:10:09;;;;;;;3.66;2.58;;;;;;;8.38;73.19;100222.33;468401;111;930669;-79
2021/12/03 01:12:18;;;;;;;4.17;2.37;;;;;;;8.51;73.18;100217.95;470804;110;947122;-78
2021/12/03 01:13:22;;;;;;;4.59;2.43;;;;;;;8.42;73.16;100227.36;464485;112;922713;-78
2021/12/03 01:14:25;;;;;;;5.63;2.70;;;;;;;8.42;73.10;100225.48;454390;115;923328;-79
2021/12/03 01:15:32;;;;;;;3.85;2.75;;;;;;;8.43;73.07;100223.61;448335;115;923175;-79
2021/12/03 01:16:36;;;;;;;4.19;2.43;;;;;;;8.43;73.11;100220.89;457584;114;922638;-79
2021/12/03 01:17:39;;;;;;;3.68;2.35;;;;;;;8.42;73.11;100217.34;457794;114;922974;-79
2021/12/03 01:18:45;;;;;;;5.04;2.52;;;;;;;8.43;73.12;100219.02;450053;117;922714;-80
2021/12/03 01:19:49;;;;;;;4.69;2.65;;;;;;;8.43;73.13;100220.89;430064;120;931020;-79
2021/12/03 01:20:53;;;;;;;6.12;2.72;;;;;;;8.45;73.16;100224.22;456858;113;922607;-80
2021/12/03 01:21:56;;;;;;;5.85;2.84;;;;;;;8.44;73.13;100223.37;456324;114;930652;-80
2021/12/03 01:23:01;;;;;;;4.86;2.99;;;;;;;8.46;73.19;100224.02;457875;114;930627;-80
2021/12/03 01:24:06;;;;;;;4.49;2.74;;;;;;;8.48;73.14;100226.53;448222;116;922654;-79
2021/12/03 01:25:10;;;;;;;5.93;2.06;;;;;;;8.50;73.13;100217.11;456789;114;922488;-79
2021/12/03 01:26:16;;;;;;;5.36;2.84;;;;;;;8.50;73.14;100219.82;456785;113;930705;-79
2021/12/03 01:27:19;;;;;;;5.35;2.55;;;;;;;8.51;73.11;100221.50;458137;114;922626;-79
2021/12/03 01:28:26;;;;;;;5.11;2.71;;;;;;;8.51;73.09;100221.50;458215;114;922641;-79
2021/12/03 01:29:29;;;;;;;5.39;2.31;;;;;;;8.53;73.03;100218.58;458222;114;930623;-79
2021/12/03 01:30:34;;;;;;;4.05;2.52;;;;;;;8.52;73.07;100212.31;457385;114;923096;-80
2021/12/03 01:31:38;;;;;;;5.05;2.41;;;;;;;8.51;73.07;100224.22;457125;115;922589;-79
2021/12/03 01:32:42;;;;;;;5.29;2.31;;;;;;;8.52;73.06;100219.63;456395;114;931110;-80
2021/12/03 01:33:47;;;;;;;6.64;2.77;;;;;;;8.51;73.09;100218.78;457729;114;922576;-80
2021/12/03 01:34:50;;;;;;;5.23;2.64;;;;;;;8.50;73.07;100219.82;456403;114;930591;-80
2021/12/03 01:35:54;;;;;;;4.78;2.87;;;;;;;8.50;73.10;100218.98;458076;115;923056;-80
2021/12/03 01:36:58;;;;;;;3.98;2.73;;;;;;;8.48;73.12;100221.94;457620;114;922743;-78
2021/12/03 01:38:02;;;;;;;4.83;2.38;;;;;;;8.48;73.15;100221.94;457013;114;923006;-79
2021/12/03 01:39:07;;;;;;;6.22;2.52;;;;;;;8.49;73.20;100228.20;457712;114;922586;-78
2021/12/03 01:40:14;;;;;;;3.67;2.38;;;;;;;8.48;73.23;100223.81;457019;115;922616;-79
2021/12/03 01:41:17;;;;;;;5.83;3.23;;;;;;;8.47;73.26;100224.85;458055;114;922595;-79
2021/12/03 01:42:21;;;;;;;4.71;2.64;;;;;;;8.46;73.29;100229.45;456242;114;922811;-79
2021/12/03 01:43:26;;;;;;;4.28;2.21;;;;;;;8.48;73.35;100226.53;457388;115;922542;-80
2021/12/03 01:44:30;;;;;;;5.07;2.44;;;;;;;8.47;73.31;100230.28;457721;113;930859;-79
2021/12/03 01:45:37;;;;;;;4.44;2.80;;;;;;;8.48;73.33;100226.53;441019;118;922629;-79
2021/12/03 01:46:41;;;;;;;3.33;2.40;;;;;;;8.48;73.38;100224.65;443676;117;922584;-79
2021/12/03 01:47:46;;;;;;;3.94;2.30;;;;;;;8.49;73.35;100228.20;443430;119;922569;-80
2021/12/03 01:48:50;;;;;;;4.45;2.49;;;;;;;8.49;73.34;100223.58;439997;119;923610;-79
2021/12/03 01:49:53;;;;;;;4.73;2.59;;;;;;;8.48;73.33;100234.68;443065;117;922692;-79
2021/12/03 01:50:58;;;;;;;5.39;2.41;;;;;;;8.48;73.35;100229.25;442936;117;922681;-78
2021/12/03 01:52:02;;;;;;;5.46;2.98;;;;;;;8.47;73.39;100227.56;457128;115;923183;-78
2021/12/03 01:53:07;;;;;;;5.32;2.67;;;;;;;8.46;73.42;100224.02;456365;115;922944;-79
2021/12/03 01:54:12;;;;;;;3.29;2.27;;;;;;;8.46;73.39;100224.02;456579;114;923155;-79
2021/12/03 01:55:15;;;;;;;4.87;2.06;;;;;;;8.46;73.42;100229.45;448252;116;922531;-79
2021/12/03 01:56:20;;;;;;;3.87;2.26;;;;;;;8.46;73.45;100229.45;457652;114;930600;-79
2021/12/03 01:57:24;;;;;;;5.16;2.83;;;;;;;8.47;73.51;100235.72;457665;115;922576;-80
2021/12/03 01:58:27;;;;;;;6.69;3.11;;;;;;;8.47;73.54;100224.85;456988;114;930621;-79
2021/12/03 01:59:30;;;;;;;5.47;2.67;;;;;;;8.48;73.54;100223.81;456439;114;930813;-79
2021/12/03 02:00:40;;;;;;;3.21;2.04;;;;;;;8.47;73.53;100220.25;456348;114;922590;-80
2021/12/03 02:01:44;;;;;;;3.42;2.48;;;;;;;8.48;73.57;100223.81;452467;114;922564;-77
2021/12/03 02:02:47;;;;;;;5.08;2.56;;;;;;;8.48;73.60;100219.22;455903;113;923019;-78
2021/12/03 02:03:54;;;;;;;4.64;2.44;;;;;;;8.49;73.61;100229.02;457076;114;922575;-78
2021/12/03 02:04:57;;;;;;;3.71;2.96;;;;;;;8.49;73.61;100223.58;457584;113;922572;-77
2021/12/03 02:06:04;;;;;;;5.38;2.44;;;;;;;8.50;73.61;100229.85;457963;114;922611;-78
2021/12/03 02:07:07;;;;;;;3.90;2.05;;;;;;;8.49;73.63;100229.02;456874;114;922633;-77
2021/12/03 02:08:12;;;;;;;3.23;2.21;;;;;;;8.50;73.70;100227.97;457304;113;922878;-77
2021/12/03 02:09:15;;;;;;;4.27;2.49;;;;;;;8.51;73.65;100232.37;457285;114;930781;-78
2021/12/03 02:10:21;;;;;;;4.66;2.71;;;;;;;8.50;73.63;100233.41;457675;113;922828;-81
2021/12/03 02:11:26;;;;;;;7.39;2.82;;;;;;;8.52;73.59;100230.48;457095;114;922687;-78
2021/12/03 02:12:29;;;;;;;5.08;2.93;;;;;;;8.51;73.56;100236.96;455288;115;922779;-80
2021/12/03 02:13:34;;;;;;;4.51;2.01;;;;;;;8.50;73.52;100236.13;454879;116;930731;-78
2021/12/03 02:14:37;;;;;;;5.33;2.48;;;;;;;8.48;73.58;100235.52;455030;115;930511;-79
2021/12/03 02:15:44;;;;;;;4.02;2.68;;;;;;;8.46;73.62;100232.16;455125;114;923190;-79
2021/12/03 02:16:47;;;;;;;3.37;2.56;;;;;;;8.45;73.64;100235.08;454178;115;922864;-76
2021/12/03 02:17:50;;;;;;;5.26;2.39;;;;;;;8.46;73.72;100236.76;454752;114;922631;-78
2021/12/03 02:18:54;;;;;;;8.40;2.87;;;;;;;8.45;73.75;100235.92;455077;116;922645;-79
2021/12/03 02:19:58;;;;;;;4.88;2.62;;;;;;;8.46;73.74;100232.16;454725;116;922993;-76
2021/12/03 02:21:04;;;;;;;6.31;3.09;;;;;;;8.47;73.78;100233.00;455477;114;923724;-79
2021/12/03 02:22:07;;;;;;;3.86;2.16;;;;;;;8.46;73.78;100234.88;455240;115;923146;-78
2021/12/03 02:23:13;;;;;;;4.76;2.77;;;;;;;8.46;73.81;100237.59;455921;114;922524;-79
2021/12/03 02:24:21;;;;;;;4.57;2.73;;;;;;;8.46;73.79;100237.59;455243;115;922546;-76
2021/12/03 02:25:25;;;;;;;3.59;2.69;;;;;;;8.46;73.88;100237.59;445407;116;922756;-77
2021/12/03 02:26:28;;;;;;;2.99;2.10;;;;;;;8.46;73.91;100236.76;447462;116;923817;-77
2021/12/03 02:27:32;;;;;;;5.96;3.56;;;;;;;8.46;73.90;100240.31;454335;115;922876;-77
2021/12/03 02:28:39;;;;;;;4.47;2.74;;;;;;;8.48;73.90;100240.11;455266;115;922594;-79
2021/12/03 02:29:42;;;;;;;5.57;2.59;;;;;;;8.47;73.92;100239.28;454782;114;923064;-78
2021/12/03 02:30:47;;;;;;;5.17;2.73;;;;;;;8.48;73.92;100232.80;454569;116;922936;-79
2021/12/03 02:31:51;;;;;;;4.39;2.58;;;;;;;8.50;73.95;100241.56;454951;116;930657;-79
2021/12/03 02:32:55;;;;;;;4.06;2.60;;;;;;;8.51;73.92;100248.67;454101;115;922598;-81
2021/12/03 02:33:58;;;;;;;4.34;2.84;;;;;;;8.52;73.89;100247.63;455030;115;930705;-79
2021/12/03 02:35:03;;;;;;;5.14;3.10;;;;;;;8.52;73.93;100249.51;454422;115;923638;-77
2021/12/03 02:36:07;;;;;;;4.69;3.09;;;;;;;8.53;73.92;100248.47;455295;115;922471;-80
2021/12/03 02:37:10;;;;;;;6.15;3.75;;;;;;;8.53;73.89;100257.46;455244;115;930652;-78
2021/12/03 02:38:17;;;;;;;5.24;3.24;;;;;;;8.53;73.88;100259.34;454418;115;922696;-80
2021/12/03 02:39:21;;;;;;;4.16;3.06;;;;;;;8.54;73.87;100258.30;455397;114;925114;-79
2021/12/03 02:40:25;;;;;;;6.59;3.46;;;;;;;8.54;73.84;100256.42;455202;114;922673;-78
2021/12/03 02:41:29;;;;;;;4.94;3.09;;;;;;;8.55;73.86;100259.95;455154;115;930590;-76
2021/12/03 02:42:33;;;;;;;7.21;3.48;;;;;;;8.55;73.88;100255.34;455295;115;922536;-78
2021/12/03 02:43:36;;;;;;;3.98;3.28;;;;;;;8.56;73.86;100258.91;454886;116;922966;-75
2021/12/03 02:44:39;;;;;;;7.07;3.62;;;;;;;8.56;73.86;100265.18;455678;114;922654;-77
2021/12/03 02:45:43;;;;;;;4.51;2.74;;;;;;;8.57;73.84;100260.58;446099;116;922745;-78
2021/12/03 02:46:47;;;;;;;4.47;2.66;;;;;;;8.57;73.86;100255.15;445945;116;922561;-79
2021/12/03 02:47:50;;;;;;;6.37;3.44;;;;;;;8.57;73.82;100264.14;436826;121;930392;-79
2021/12/03 02:48:54;;;;;;;5.17;2.84;;;;;;;8.59;73.83;100255.78;436063;118;930714;-78
2021/12/03 02:49:57;;;;;;;6.58;3.04;;;;;;;8.58;73.79;100262.26;446284;116;930642;-79
2021/12/03 02:51:02;;;;;;;6.36;3.47;;;;;;;8.59;73.80;100259.34;454453;116;922733;-78
2021/12/03 02:52:07;;;;;;;5.25;4.08;;;;;;;8.59;73.81;100255.78;455090;115;923603;-79
2021/12/03 02:53:11;;;;;;;6.37;5.52;;;;;;;8.61;73.80;100259.11;445785;116;923032;-78
2021/12/03 02:54:14;;;;;;;7.22;5.80;;;;;;;8.60;73.79;100252.84;445154;118;923181;-78
2021/12/03 02:55:18;;;;;;;9.12;5.97;;;;;;;8.63;73.75;100251.59;436022;121;930905;-79
2021/12/03 02:56:22;;;;;;;8.08;5.54;;;;;;;8.64;73.74;100262.27;435330;121;930617;-77
2021/12/03 02:57:25;;;;;;;5.92;4.03;;;;;;;8.65;73.68;100268.54;446013;118;922730;-80
2021/12/03 02:58:29;;;;;;;6.54;3.23;;;;;;;8.66;73.67;100259.31;436315;120;930545;-80
2021/12/03 02:59:33;;;;;;;9.43;3.44;;;;;;;8.66;73.63;100260.16;435274;120;930978;-78
2021/12/03 03:00:40;;;;;;;4.82;3.12;;;;;;;8.66;73.60;100254.72;434756;120;922619;-78
2021/12/03 03:01:44;;;;;;;3.92;2.51;;;;;;;8.66;73.61;100268.31;445997;116;922723;-78
2021/12/03 03:02:48;;;;;;;4.34;2.49;;;;;;;8.67;73.57;100260.98;445669;117;923137;-80
2021/12/03 03:03:52;;;;;;;4.58;2.65;;;;;;;8.67;73.61;100267.27;445946;117;922579;-78
2021/12/03 03:04:56;;;;;;;5.64;3.01;;;;;;;8.68;73.57;100266.23;446241;118;922640;-78
2021/12/03 03:06:02;;;;;;;2.72;1.92;;;;;;;8.69;73.55;100267.91;446471;117;922974;-80
2021/12/03 03:07:06;;;;;;;5.23;2.29;;;;;;;8.71;73.51;100273.94;437356;121;922669;-80
2021/12/03 03:08:09;;;;;;;4.37;2.41;;;;;;;8.71;73.44;100268.51;446242;116;923068;-80
2021/12/03 03:09:14;;;;;;;5.21;2.57;;;;;;;8.72;73.59;100269.34;446112;118;930595;-80
2021/12/03 03:10:24;;;;;;;3.53;2.31;;;;;;;8.72;73.59;100269.34;444776;118;930586;-78
2021/12/03 03:11:29;;;;;;;5.39;2.99;;;;;;;8.72;73.34;100270.19;445723;118;922673;-80
2021/12/03 03:12:32;;;;;;;3.87;2.58;;;;;;;8.72;73.29;100270.19;445788;118;923165;-79
2021/12/03 03:13:36;;;;;;;4.12;1.96;;;;;;;8.71;73.26;100265.80;446645;118;922905;-81
2021/12/03 03:14:48;;;;;;;3.82;2.11;;;;;;;8.71;73.25;100270.42;446065;116;922677;-78
2021/12/03 03:15:52;;;;;;;5.13;2.39;;;;;;;8.70;73.23;100266.86;445852;118;922665;-81
2021/12/03 03:16:56;;;;;;;4.48;2.59;;;;;;;8.70;73.28;100269.58;446465;116;922681;-78
2021/12/03 03:18:09;;;;;;;6.36;2.99;;;;;;;8.70;73.24;100261.42;445943;116;923080;-81
2021/12/03 03:19:14;;;;;;;3.68;2.97;;;;;;;8.72;73.20;100264.75;446055;118;922644;-78
2021/12/03 03:20:19;;;;;;;4.99;2.41;;;;;;;8.71;73.18;100260.35;446767;116;922721;-80
2021/12/03 03:21:23;;;;;;;3.86;2.26;;;;;;;8.71;73.14;100268.51;437230;121;922698;-80
2021/12/03 03:22:28;;;;;;;5.30;2.85;;;;;;;8.71;73.16;100262.27;436935;121;922511;-80
2021/12/03 03:23:32;;;;;;;5.05;2.30;;;;;;;8.70;73.11;100269.58;436870;121;930444;-78
2021/12/03 03:24:36;;;;;;;6.46;2.39;;;;;;;8.70;73.07;100264.14;437083;121;922722;-78
2021/12/03 03:25:41;;;;;;;5.55;2.08;;;;;;;8.70;73.09;100266.86;437298;121;922981;-77
2021/12/03 03:26:46;;;;;;;4.71;2.25;;;;;;;8.71;73.11;100267.70;436659;119;923631;-79
2021/12/03 03:27:50;;;;;;;3.57;2.31;;;;;;;8.72;73.08;100263.91;435989;119;923082;-79
2021/12/03 03:28:57;;;;;;;4.56;2.32;;;;;;;8.72;73.03;100267.47;437131;121;930690;-79
2021/12/03 03:30:00;;;;;;;4.13;2.31;;;;;;;8.73;73.01;100266.43;437109;119;923285;-80
2021/12/03 03:31:04;;;;;;;5.72;2.22;;;;;;;8.74;72.95;100265.39;435037;119;922989;-79
2021/12/03 03:32:09;;;;;;;3.00;2.31;;;;;;;8.74;72.90;100267.27;435772;119;923098;-78
2021/12/03 03:33:13;;;;;;;3.40;1.91;;;;;;;8.76;72.88;100273.34;446058;118;922588;-80
2021/12/03 03:34:17;;;;;;;3.05;2.05;;;;;;;8.77;72.83;100269.55;446427;118;922917;-78
2021/12/03 03:35:20;;;;;;;4.09;2.28;;;;;;;8.76;72.77;100271.46;444914;116;930406;-80
2021/12/03 03:36:26;;;;;;;5.67;2.40;;;;;;;8.76;72.77;100270.63;446199;116;923075;-80
2021/12/03 03:37:30;;;;;;;3.99;2.29;;;;;;;8.77;72.78;100274.98;445964;118;923008;-79
2021/12/03 03:38:33;;;;;;;2.56;1.89;;;;;;;8.78;72.75;100265.80;446263;118;922636;-80
2021/12/03 03:39:37;;;;;;;3.82;2.32;;;;;;;8.78;72.71;100276.66;445915;116;922618;-80
2021/12/03 03:40:41;;;;;;;4.49;2.09;;;;;;;8.79;72.68;100273.74;444836;118;923109;-81
2021/12/03 03:41:44;;;;;;;3.01;1.89;;;;;;;8.80;72.65;100271.86;446196;116;923090;-81
2021/12/03 03:42:48;;;;;;;4.14;2.58;;;;;;;8.82;72.61;100274.37;445321;116;922557;-78
2021/12/03 03:43:51;;;;;;;5.55;2.59;;;;;;;8.82;72.54;100267.03;445659;118;922550;-81
2021/12/03 03:44:55;;;;;;;4.20;2.36;;;;;;;8.83;72.51;100270.59;444285;117;930583;-79
2021/12/03 03:45:58;;;;;;;5.39;2.85;;;;;;;8.84;72.47;100272.27;445405;116;923094;-77
2021/12/03 03:47:04;;;;;;;5.11;2.22;;;;;;;8.83;72.37;100273.30;446329;118;922546;-78
2021/12/03 03:48:08;;;;;;;3.09;2.72;;;;;;;8.82;72.39;100277.91;445761;118;923192;-78
2021/12/03 03:49:13;;;;;;;5.92;2.83;;;;;;;8.83;72.37;100270.59;446051;118;922688;-78
2021/12/03 03:50:18;;;;;;;6.14;3.69;;;;;;;8.83;72.36;100274.14;445721;117;922558;-80
2021/12/03 03:51:22;;;;;;;6.13;3.04;;;;;;;8.83;72.36;100273.30;446260;118;922608;-79
2021/12/03 03:52:28;;;;;;;4.36;2.86;;;;;;;8.83;72.39;100276.03;438460;120;922767;-79
2021/12/03 03:53:31;;;;;;;7.06;3.62;;;;;;;8.83;72.36;100278.75;446641;116;923040;-79
2021/12/03 03:54:35;;;;;;;4.53;2.86;;;;;;;8.84;72.29;100270.39;455442;115;922626;-78
2021/12/03 03:55:38;;;;;;;5.56;3.07;;;;;;;8.84;72.29;100278.55;455386;114;922556;-79
2021/12/03 03:56:42;;;;;;;7.52;3.36;;;;;;;8.85;72.21;100284.82;455127;115;930539;-78
2021/12/03 03:57:46;;;;;;;7.51;3.74;;;;;;;8.83;72.18;100279.58;454873;114;923077;-76
2021/12/03 03:58:50;;;;;;;6.03;3.21;;;;;;;8.82;72.21;100274.37;455503;115;922551;-81
2021/12/03 03:59:54;;;;;;;6.55;3.16;;;;;;;8.80;71.85;100280.02;455040;115;922577;-79
2021/12/03 04:00:57;;;;;;;5.25;3.30;;;;;;;8.80;71.85;100280.02;455235;114;930512;-79
2021/12/03 04:02:00;;;;;;;5.01;3.15;;;;;;;8.77;72.21;100283.98;453837;115;922544;-79
2021/12/03 04:03:05;;;;;;;5.63;3.55;;;;;;;8.77;72.22;100291.30;455593;115;930575;-80
2021/12/03 04:04:08;;;;;;;7.46;3.65;;;;;;;8.76;72.27;100287.77;455281;116;930559;-80
2021/12/03 04:05:11;;;;;;;5.63;3.26;;;;;;;8.77;72.29;100289.41;455142;115;923093;-78
2021/12/03 04:06:17;;;;;;;5.18;3.01;;;;;;;8.77;72.21;100289.41;454214;116;923013;-79
2021/12/03 04:07:21;;;;;;;5.60;2.76;;;;;;;8.75;72.25;100291.53;453723;116;922602;-78
2021/12/03 04:08:24;;;;;;;5.32;3.02;;;;;;;8.77;72.25;100289.41;454066;116;930526;-80
2021/12/03 04:09:28;;;;;;;4.91;3.30;;;;;;;8.76;72.21;100293.20;454987;115;922652;-79
2021/12/03 04:10:32;;;;;;;10.60;3.74;;;;;;;8.77;72.21;100294.02;454192;115;922525;-79
2021/12/03 04:11:35;;;;;;;5.84;3.01;;;;;;;8.76;72.17;100297.80;455318;116;922642;-81
2021/12/03 04:12:39;;;;;;;5.83;2.86;;;;;;;8.73;72.16;100301.77;454769;116;930922;-79
2021/12/03 04:13:43;;;;;;;5.10;3.48;;;;;;;8.73;72.21;100295.48;453207;115;931057;-78
2021/12/03 04:14:46;;;;;;;7.19;3.53;;;;;;;8.72;72.19;100302.80;438920;119;930664;-78
2021/12/03 04:15:49;;;;;;;6.92;3.96;;;;;;;8.72;72.18;100302.80;437567;119;922530;-79
2021/12/03 04:16:53;;;;;;;6.30;3.66;;;;;;;8.72;72.17;100313.67;437554;119;922634;-78
2021/12/03 04:17:57;;;;;;;5.67;4.11;;;;;;;8.72;72.21;100301.97;437448;119;930842;-80
2021/12/03 04:19:00;;;;;;;6.70;4.11;;;;;;;8.73;72.21;100306.36;435850;120;922776;-79
2021/12/03 04:20:07;;;;;;;8.34;4.25;;;;;;;8.72;72.17;100305.52;427385;121;930660;-79
2021/12/03 04:21:10;;;;;;;8.28;4.54;;;;;;;8.73;72.18;100309.92;445305;115;923156;-78
2021/12/03 04:22:16;;;;;;;7.66;3.74;;;;;;;8.73;72.18;100304.48;453982;115;922682;-79
2021/12/03 04:23:20;;;;;;;6.48;3.95;;;;;;;8.74;72.17;100299.89;454044;115;922585;-78
2021/12/03 04:24:23;;;;;;;7.18;4.14;;;;;;;8.77;72.18;100305.73;454395;116;922907;-80
2021/12/03 04:25:27;;;;;;;6.72;3.56;;;;;;;8.77;72.14;100305.73;455314;114;922704;-81
2021/12/03 04:26:31;;;;;;;5.01;2.95;;;;;;;8.79;72.11;100302.81;451670;116;930553;-79
2021/12/03 04:27:35;;;;;;;4.76;3.09;;;;;;;8.79;72.03;100302.81;453927;115;922679;-79
2021/12/03 04:28:38;;;;;;;5.19;3.14;;;;;;;8.80;71.95;100301.77;453935;115;930584;-78
2021/12/03 04:29:41;;;;;;;7.12;3.69;;;;;;;8.77;71.89;100311.16;454677;114;923875;-80
2021/12/03 04:30:45;;;;;;;6.05;3.64;;;;;;;8.77;71.84;100313.88;453829;115;923041;-79
2021/12/03 04:31:48;;;;;;;5.75;3.34;;;;;;;8.77;71.80;100313.88;453763;114;922942;-81
2021/12/03 04:32:52;;;;;;;8.57;3.59;;;;;;;8.75;71.83;100307.00;453653;114;930615;-81
2021/12/03 04:33:55;;;;;;;8.73;3.41;;;;;;;8.75;71.84;100312.44;453986;114;922449;-79
2021/12/03 04:34:59;;;;;;;6.21;3.14;;;;;;;8.75;71.82;100310.56;453589;114;930721;-82
2021/12/03 04:36:03;;;;;;;7.96;3.24;;;;;;;8.76;71.77;100317.67;452918;114;930749;-82
2021/12/03 04:37:06;;;;;;;5.34;2.77;;;;;;;8.75;71.74;100310.56;454276;116;922657;-78
2021/12/03 04:38:10;;;;;;;5.81;3.18;;;;;;;8.75;71.72;100307.84;453793;115;923074;-78
2021/12/03 04:39:13;;;;;;;4.46;3.27;;;;;;;8.73;71.71;100309.92;453761;116;922557;-78
2021/12/03 04:40:21;;;;;;;5.27;3.16;;;;;;;8.73;71.68;100312.64;454441;114;930625;-81
2021/12/03 04:41:24;;;;;;;6.69;3.19;;;;;;;8.73;71.68;100309.08;454140;116;922512;-79
2021/12/03 04:42:28;;;;;;;5.01;3.14;;;;;;;8.71;71.68;100309.28;453850;114;923171;-78
2021/12/03 04:43:32;;;;;;;3.71;2.85;;;;;;;8.72;71.66;100304.69;454137;115;930533;-79
2021/12/03 04:44:35;;;;;;;7.22;3.52;;;;;;;8.71;71.72;100306.56;453814;115;930763;-80
2021/12/03 04:45:39;;;;;;;7.74;3.59;;;;;;;8.73;71.71;100306.36;453865;114;930545;-80
2021/12/03 04:46:43;;;;;;;4.69;2.71;;;;;;;8.73;71.69;100306.36;454361;114;930648;-76
2021/12/03 04:47:47;;;;;;;4.24;2.64;;;;;;;8.75;71.65;100307.00;453777;115;922635;-78
2021/12/03 04:48:53;;;;;;;4.79;2.64;;;;;;;8.77;71.60;100304.89;454044;115;923024;-79
2021/12/03 04:49:56;;;;;;;2.52;2.18;;;;;;;8.77;71.50;100305.73;454567;116;922987;-80
2021/12/03 04:50:59;;;;;;;3.79;2.11;;;;;;;8.78;71.48;100312.00;453769;114;930245;-77
2021/12/03 04:52:03;;;;;;;3.05;2.17;;;;;;;8.78;71.46;100304.69;454102;114;922486;-80
2021/12/03 04:53:08;;;;;;;4.64;2.45;;;;;;;8.78;71.42;100303.84;454166;114;930519;-79
2021/12/03 04:54:11;;;;;;;3.52;2.26;;;;;;;8.78;71.36;100296.53;454048;116;923010;-80
2021/12/03 04:55:16;;;;;;;4.26;2.43;;;;;;;8.77;71.32;100300.29;453886;115;930605;-80
2021/12/03 04:56:21;;;;;;;5.49;2.39;;;;;;;8.76;71.27;100295.92;453876;115;930403;-81
2021/12/03 04:57:24;;;;;;;4.59;2.46;;;;;;;8.76;71.23;100312.23;453945;115;922528;-81
2021/12/03 04:58:28;;;;;;;5.14;2.52;;;;;;;8.76;71.20;100311.39;454152;114;922683;-81
2021/12/03 04:59:31;;;;;;;4.08;2.41;;;;;;;8.74;71.18;100308.88;454206;115;922850;-77